Weather at Aerodromo de Figueira dos Cavaleiros

Public forecast

Using degrees Celsius for public forecast. Weather courtesy of forecast.io.

Closest aviation weather report (METAR) to Aerodromo de Figueira dos Cavaleiros

Closest report is Beja Airport / Airbase, 14.3 nm (26.6 km) E.

2024/07/13 22:00 (retrieved 31 minutes ago)

LPBJ 132200Z 26007KT CAVOK 18/07 Q1013

Closest aviation forecast (TAF) to Aerodromo de Figueira dos Cavaleiros

Closest forecast is Beja Airport / Airbase, 14.3 nm (26.6 km) E.

2024/07/13 18:18 (retrieved 4 hours ago)

TAF LPBJ 131703Z 1318/1418 30010KT CAVOK